createdAt,value
2018-01-15T00:00:26.631Z,0.20
2018-01-15T00:02:54.066Z,0.20
2018-01-15T00:05:22.254Z,0.20
2018-01-15T00:07:50.462Z,0.20
2018-01-15T00:10:17.896Z,0.20
2018-01-15T00:12:45.335Z,0.20
2018-01-15T00:15:13.546Z,0.20
2018-01-15T00:17:40.984Z,0.20
2018-01-15T00:20:08.419Z,0.10
2018-01-15T00:22:35.847Z,0.20
2018-01-15T00:25:03.283Z,0.00
2018-01-15T00:27:30.719Z,0.00
2018-01-15T00:29:58.154Z,-0.10
2018-01-15T00:32:26.367Z,0.00
2018-01-15T00:34:53.795Z,0.00
2018-01-15T00:37:21.229Z,0.10
2018-01-15T00:39:48.668Z,0.20
2018-01-15T00:42:16.096Z,0.10
2018-01-15T00:44:43.535Z,0.20
2018-01-15T00:47:10.963Z,0.20
2018-01-15T00:49:39.168Z,0.20
2018-01-15T00:52:06.582Z,0.20
2018-01-15T00:54:34.018Z,0.30
2018-01-15T00:57:01.461Z,0.20
2018-01-15T00:59:28.899Z,0.20
2018-01-15T01:01:56.328Z,0.20
2018-01-15T01:04:24.542Z,0.30
2018-01-15T01:06:51.973Z,0.20
2018-01-15T01:09:19.404Z,0.30
2018-01-15T01:11:46.834Z,0.20
2018-01-15T01:14:14.270Z,0.10
2018-01-15T01:16:41.697Z,0.20
2018-01-15T01:19:09.126Z,0.10
2018-01-15T01:21:36.555Z,0.10
2018-01-15T01:24:03.996Z,0.20
2018-01-15T01:26:31.419Z,0.10
2018-01-15T01:28:59.622Z,0.10
2018-01-15T01:31:27.056Z,0.10
2018-01-15T01:33:54.491Z,0.10
2018-01-15T01:36:22.690Z,0.00
2018-01-15T01:38:50.878Z,0.00
2018-01-15T01:41:18.312Z,0.00
2018-01-15T01:43:46.732Z,0.00
2018-01-15T01:46:14.163Z,0.00
2018-01-15T01:48:41.593Z,0.00
2018-01-15T01:51:09.025Z,0.00
2018-01-15T01:53:36.454Z,0.00
2018-01-15T01:56:03.892Z,-0.10
2018-01-15T01:58:31.327Z,-0.10
2018-01-15T02:00:59.549Z,-0.10
2018-01-15T02:03:26.975Z,-0.20
2018-01-15T02:05:54.406Z,-0.10
2018-01-15T02:08:22.607Z,-0.10
2018-01-15T02:10:50.047Z,-0.20
2018-01-15T02:13:18.242Z,-0.20
2018-01-15T02:15:45.698Z,-0.20
2018-01-15T02:18:13.889Z,-0.20
2018-01-15T02:20:41.331Z,-0.30
2018-01-15T02:23:08.766Z,-0.40
2018-01-15T02:25:36.983Z,-0.40
2018-01-15T02:28:04.412Z,-0.40
2018-01-15T02:30:32.613Z,-0.30
2018-01-15T02:33:00.050Z,-0.30
2018-01-15T02:35:27.487Z,-0.40
2018-01-15T02:37:55.698Z,-0.40
2018-01-15T02:40:23.131Z,-0.40
2018-01-15T02:42:56.528Z,-0.40
2018-01-15T02:45:23.966Z,-0.40
2018-01-15T02:47:52.180Z,-0.50
2018-01-15T02:50:19.620Z,-0.50
2018-01-15T02:52:47.836Z,-0.40
2018-01-15T02:55:15.280Z,-0.40
2018-01-15T02:57:42.720Z,-0.40
2018-01-15T03:00:10.156Z,-0.40
2018-01-15T03:02:38.370Z,-0.30
2018-01-15T03:05:05.811Z,-0.30
2018-01-15T03:07:33.261Z,-0.20
2018-01-15T03:10:00.703Z,-0.20
2018-01-15T03:12:28.903Z,-0.10
2018-01-15T03:14:56.348Z,-0.10
2018-01-15T03:17:23.779Z,0.00
2018-01-15T03:19:51.985Z,0.00
2018-01-15T03:22:19.416Z,0.00
2018-01-15T03:24:47.629Z,0.10
2018-01-15T03:27:15.055Z,0.10
2018-01-15T03:29:43.265Z,0.20
2018-01-15T03:32:10.710Z,0.20
2018-01-15T03:34:38.156Z,0.20
2018-01-15T03:37:05.583Z,0.30
2018-01-15T03:39:33.016Z,0.30
2018-01-15T03:42:00.467Z,0.40
2018-01-15T03:44:27.901Z,0.40
2018-01-15T03:46:55.335Z,0.50
2018-01-15T03:49:23.538Z,0.60
2018-01-15T03:51:51.050Z,0.60
2018-01-15T03:54:19.247Z,0.70
2018-01-15T03:56:46.678Z,0.60
2018-01-15T03:59:14.144Z,0.70
2018-01-15T04:01:42.415Z,0.80
2018-01-15T04:04:10.624Z,0.80
2018-01-15T04:06:38.051Z,0.80
2018-01-15T04:09:06.316Z,0.90
2018-01-15T04:11:33.755Z,0.90
2018-01-15T04:14:01.192Z,1.00
2018-01-15T04:16:28.696Z,1.00
2018-01-15T04:18:56.903Z,1.10
2018-01-15T04:21:24.326Z,1.10
2018-01-15T04:23:52.552Z,1.20
2018-01-15T04:26:19.987Z,1.20
2018-01-15T04:28:47.421Z,1.20
2018-01-15T04:31:15.624Z,1.00
2018-01-15T04:33:43.064Z,1.00
2018-01-15T04:36:11.270Z,1.00
2018-01-15T04:38:38.706Z,1.00
2018-01-15T04:41:06.916Z,1.10
2018-01-15T04:43:34.368Z,1.10
2018-01-15T04:46:01.873Z,1.10
2018-01-15T04:48:30.067Z,1.30
2018-01-15T04:50:57.503Z,1.30
2018-01-15T04:53:25.789Z,1.30
2018-01-15T04:55:54.002Z,1.40
2018-01-15T04:58:21.431Z,1.40
2018-01-15T05:00:48.880Z,1.40
2018-01-15T05:03:17.100Z,1.50
2018-01-15T05:05:44.546Z,1.50
2018-01-15T05:08:11.978Z,1.30
2018-01-15T05:10:40.173Z,1.40
2018-01-15T05:13:07.613Z,1.40
2018-01-15T05:15:35.047Z,1.40
2018-01-15T05:18:03.256Z,1.40
2018-01-15T05:20:30.683Z,1.40
2018-01-15T05:22:58.882Z,1.50
2018-01-15T05:25:26.320Z,1.50
2018-01-15T05:27:54.526Z,1.50
2018-01-15T05:30:21.971Z,1.50
2018-01-15T05:32:49.403Z,1.60
2018-01-15T05:35:17.605Z,1.60
2018-01-15T05:37:45.031Z,1.60
2018-01-15T05:40:13.240Z,1.70
2018-01-15T05:42:40.684Z,1.70
2018-01-15T05:45:08.111Z,1.70
2018-01-15T05:47:35.548Z,1.70
2018-01-15T05:50:03.403Z,1.80
2018-01-15T05:52:30.845Z,1.80
2018-01-15T05:54:58.271Z,1.80
2018-01-15T05:57:26.363Z,1.80
2018-01-15T05:59:53.787Z,1.80
2018-01-15T06:02:21.987Z,1.80
2018-01-15T06:04:49.418Z,1.80
2018-01-15T06:07:17.642Z,1.80
2018-01-15T06:09:45.077Z,1.80
2018-01-15T06:12:12.513Z,1.80
2018-01-15T06:14:40.729Z,1.90
2018-01-15T06:17:08.165Z,1.80
2018-01-15T06:19:35.603Z,1.90
2018-01-15T06:22:03.809Z,1.90
2018-01-15T06:24:31.254Z,1.90
2018-01-15T06:26:58.689Z,1.90
2018-01-15T06:29:26.903Z,1.90
2018-01-15T06:31:54.328Z,1.90
2018-01-15T06:34:22.538Z,2.00
2018-01-15T06:36:49.975Z,2.00
2018-01-15T06:39:17.415Z,2.10
2018-01-15T06:41:45.624Z,2.10
2018-01-15T06:44:13.051Z,2.10
2018-01-15T06:46:41.258Z,2.10
2018-01-15T06:49:08.692Z,2.10
2018-01-15T06:51:36.131Z,2.10
2018-01-15T06:54:04.327Z,2.10
2018-01-15T06:56:31.768Z,2.10
2018-01-15T06:58:59.970Z,2.20
2018-01-15T07:01:27.411Z,2.20
2018-01-15T07:03:54.839Z,2.10
2018-01-15T07:06:23.070Z,2.20
2018-01-15T07:08:50.540Z,2.20
2018-01-15T07:11:17.981Z,2.20
2018-01-15T07:13:45.420Z,2.20
2018-01-15T07:16:12.847Z,2.10
2018-01-15T07:18:41.056Z,2.10
2018-01-15T07:21:08.488Z,2.10
2018-01-15T07:23:36.702Z,2.10
2018-01-15T07:26:04.127Z,2.10
2018-01-15T07:28:32.376Z,2.20
2018-01-15T07:30:59.772Z,2.10
2018-01-15T07:33:27.203Z,2.20
2018-01-15T07:35:55.399Z,2.20
2018-01-15T07:38:22.835Z,2.20
2018-01-15T07:40:50.263Z,2.30
2018-01-15T07:43:17.711Z,2.30
2018-01-15T07:45:45.152Z,2.30
2018-01-15T07:48:12.575Z,2.30
2018-01-15T07:50:40.780Z,2.40
2018-01-15T07:53:08.203Z,2.40
2018-01-15T07:55:36.416Z,2.50
2018-01-15T07:58:03.852Z,2.40
2018-01-15T08:00:31.292Z,2.40
2018-01-15T08:02:59.496Z,2.40
2018-01-15T08:05:26.931Z,2.40
2018-01-15T08:07:54.366Z,2.50
2018-01-15T08:10:21.827Z,2.60
2018-01-15T08:12:50.028Z,2.60
2018-01-15T08:15:17.472Z,2.60
2018-01-15T08:17:45.678Z,2.70
2018-01-15T08:20:13.116Z,2.70
2018-01-15T08:22:40.548Z,2.70
2018-01-15T08:25:08.769Z,2.80
2018-01-15T08:27:36.199Z,2.70
2018-01-15T08:30:03.641Z,2.80
2018-01-15T08:32:31.843Z,2.60
2018-01-15T08:34:59.347Z,2.60
2018-01-15T08:37:26.799Z,2.70
2018-01-15T08:39:54.284Z,2.70
2018-01-15T08:42:21.691Z,2.80
2018-01-15T08:44:49.145Z,2.80
2018-01-15T08:47:16.576Z,2.70
2018-01-15T08:49:44.008Z,2.70
2018-01-15T08:52:11.465Z,2.60
2018-01-15T08:54:38.896Z,2.70
2018-01-15T08:57:06.332Z,2.70
2018-01-15T08:59:33.769Z,2.70
2018-01-15T09:02:01.199Z,2.70
2018-01-15T09:04:29.424Z,2.80
2018-01-15T09:06:56.873Z,2.70
2018-01-15T09:09:24.307Z,2.80
2018-01-15T09:11:51.744Z,2.80
2018-01-15T09:14:19.948Z,2.60
2018-01-15T09:16:47.376Z,2.60
2018-01-15T09:19:15.589Z,2.70
2018-01-15T09:21:43.019Z,2.60
2018-01-15T09:24:11.226Z,2.60
2018-01-15T09:26:38.657Z,2.60
2018-01-15T09:29:06.086Z,2.60
2018-01-15T09:31:33.520Z,2.70
2018-01-15T09:34:00.969Z,2.70
2018-01-15T09:36:28.392Z,2.70
2018-01-15T09:38:55.840Z,2.70
2018-01-15T09:41:23.281Z,2.70
2018-01-15T09:43:50.694Z,2.80
2018-01-15T09:46:18.122Z,2.80
2018-01-15T09:48:45.559Z,2.90
2018-01-15T09:51:13.768Z,2.90
2018-01-15T09:53:41.207Z,3.00
2018-01-15T09:56:08.641Z,3.00
2018-01-15T09:58:36.836Z,3.00
2018-01-15T10:01:04.266Z,3.00
2018-01-15T10:03:32.477Z,3.10
2018-01-15T10:05:59.909Z,3.00
2018-01-15T10:08:28.108Z,3.20
2018-01-15T10:10:55.533Z,3.20
2018-01-15T10:13:23.723Z,3.30
2018-01-15T10:15:51.168Z,3.30
2018-01-15T10:18:19.358Z,3.40
2018-01-15T10:20:46.795Z,3.40
2018-01-15T10:23:14.995Z,3.40
2018-01-15T10:25:42.430Z,3.40
2018-01-15T10:28:10.627Z,3.40
2018-01-15T10:30:38.051Z,3.40
2018-01-15T10:33:05.491Z,3.40
2018-01-15T10:35:32.924Z,3.40
2018-01-15T10:38:00.367Z,3.40
2018-01-15T10:40:27.795Z,3.50
2018-01-15T10:42:56.012Z,3.50
2018-01-15T10:45:23.439Z,3.40
2018-01-15T10:47:50.939Z,3.40
2018-01-15T10:50:18.358Z,3.40
2018-01-15T10:52:45.803Z,3.50
2018-01-15T10:55:13.998Z,3.60
2018-01-15T10:57:41.438Z,3.50
2018-01-15T11:00:09.639Z,3.60
2018-01-15T11:02:37.080Z,3.50
2018-01-15T11:05:04.512Z,3.60
2018-01-15T11:07:32.729Z,3.60
2018-01-15T11:10:00.156Z,3.50
2018-01-15T11:12:27.601Z,3.60
2018-01-15T11:14:55.808Z,3.60
2018-01-15T11:17:23.247Z,3.60
2018-01-15T11:19:50.676Z,3.60
2018-01-15T11:22:18.103Z,3.70
2018-01-15T11:24:45.546Z,3.70
2018-01-15T11:27:13.002Z,3.80
2018-01-15T11:29:40.454Z,3.80
2018-01-15T11:32:07.875Z,3.80
2018-01-15T11:34:36.090Z,3.80
2018-01-15T11:37:03.565Z,3.80
2018-01-15T11:39:30.988Z,3.80
2018-01-15T11:41:58.418Z,3.80
2018-01-15T11:44:25.854Z,3.80
2018-01-15T11:46:53.291Z,3.80
2018-01-15T11:49:20.732Z,3.90
2018-01-15T11:51:48.160Z,3.80
2018-01-15T11:54:15.599Z,3.90
2018-01-15T11:56:43.807Z,4.00
2018-01-15T11:59:11.310Z,4.00
2018-01-15T12:01:38.748Z,4.10
2018-01-15T12:04:06.192Z,4.10
2018-01-15T12:06:33.628Z,4.20
2018-01-15T12:09:01.136Z,4.20
2018-01-15T12:11:29.332Z,4.20
2018-01-15T12:13:56.781Z,4.20
2018-01-15T12:16:24.217Z,4.20
2018-01-15T12:18:51.682Z,4.20
2018-01-15T12:21:19.090Z,4.20
2018-01-15T12:23:47.285Z,4.10
2018-01-15T12:26:15.051Z,4.00
2018-01-15T12:28:42.533Z,4.10
2018-01-15T12:31:09.975Z,4.20
2018-01-15T12:33:37.638Z,4.20
2018-01-15T12:36:05.107Z,4.20
2018-01-15T12:38:32.595Z,4.20
2018-01-15T12:41:00.029Z,4.20
2018-01-15T12:43:27.575Z,4.30
2018-01-15T12:45:55.000Z,4.20
2018-01-15T12:48:22.445Z,4.30
2018-01-15T12:50:50.648Z,4.40
2018-01-15T12:53:18.167Z,4.40
2018-01-15T12:55:46.364Z,4.50
2018-01-15T12:58:13.805Z,4.50
2018-01-15T13:00:42.116Z,4.60
2018-01-15T13:03:11.691Z,4.60
2018-01-15T13:05:50.006Z,4.60
2018-01-15T13:08:30.264Z,4.60
2018-01-15T13:10:58.568Z,4.60
2018-01-15T13:13:26.011Z,4.60
2018-01-15T13:15:53.437Z,4.60
2018-01-15T13:18:20.882Z,4.60
2018-01-15T13:20:49.018Z,4.60
2018-01-15T13:23:16.786Z,4.60
2018-01-15T13:25:45.058Z,4.60
2018-01-15T13:28:12.506Z,4.60
2018-01-15T13:30:39.927Z,4.60
2018-01-15T13:33:09.172Z,4.60
2018-01-15T13:35:36.612Z,4.60
2018-01-15T13:38:04.090Z,4.60
2018-01-15T13:40:33.778Z,4.70
2018-01-15T13:43:01.955Z,4.70
2018-01-15T13:45:29.379Z,4.70
2018-01-15T13:47:57.583Z,4.80
2018-01-15T13:50:25.112Z,4.80
2018-01-15T13:52:53.307Z,4.80
2018-01-15T13:55:20.737Z,4.80
2018-01-15T13:57:48.161Z,4.80
2018-01-15T14:00:15.607Z,4.90
2018-01-15T14:02:43.070Z,4.90
2018-01-15T14:05:10.509Z,5.00
2018-01-15T14:07:37.943Z,5.00
2018-01-15T14:10:06.203Z,5.00
2018-01-15T14:12:34.418Z,5.10
2018-01-15T14:15:01.899Z,5.10
2018-01-15T14:17:29.347Z,5.10
2018-01-15T14:19:56.806Z,5.10
2018-01-15T14:22:24.507Z,5.10
2018-01-15T14:24:51.973Z,5.20
2018-01-15T14:27:19.399Z,5.20
2018-01-15T14:29:46.836Z,5.20
2018-01-15T14:32:14.273Z,5.20
2018-01-15T14:34:41.738Z,5.20
2018-01-15T14:37:09.915Z,5.20
2018-01-15T14:39:37.344Z,5.20
2018-01-15T14:42:05.608Z,5.20
2018-01-15T14:44:33.800Z,5.20
2018-01-15T14:47:02.103Z,5.30
2018-01-15T14:49:29.569Z,5.30
2018-01-15T14:51:57.103Z,5.30
2018-01-15T14:54:24.532Z,5.30
2018-01-15T14:56:52.747Z,5.50
2018-01-15T14:59:20.184Z,5.50
2018-01-15T15:01:47.612Z,5.50
2018-01-15T15:04:15.043Z,5.50
2018-01-15T15:06:42.466Z,5.50
2018-01-15T15:09:09.911Z,5.50
2018-01-15T15:11:37.384Z,5.60
2018-01-15T15:14:04.826Z,5.60
2018-01-15T15:16:33.039Z,5.50
2018-01-15T15:19:00.469Z,5.50
2018-01-15T15:21:27.944Z,5.50
2018-01-15T15:23:55.378Z,5.50
2018-01-15T15:26:23.711Z,5.60
2018-01-15T15:28:51.253Z,5.60
2018-01-15T15:31:18.794Z,5.60
2018-01-15T15:33:46.207Z,5.50
2018-01-15T15:36:14.612Z,5.50
2018-01-15T15:38:42.290Z,5.50
2018-01-15T15:41:09.811Z,5.50
2018-01-15T15:43:38.107Z,5.40
2018-01-15T15:46:06.312Z,5.40
2018-01-15T15:48:33.793Z,5.30
2018-01-15T15:51:01.212Z,5.40
2018-01-15T15:53:28.636Z,5.30
2018-01-15T15:55:56.885Z,5.30
2018-01-15T15:58:24.664Z,5.30
2018-01-15T16:00:52.095Z,5.20
2018-01-15T16:03:19.528Z,5.10
2018-01-15T16:05:46.973Z,5.10
2018-01-15T16:08:14.412Z,5.00
2018-01-15T16:10:42.616Z,5.00
2018-01-15T16:13:10.061Z,5.00
2018-01-15T16:15:37.530Z,5.00
2018-01-15T16:18:04.963Z,5.00
2018-01-15T16:20:32.452Z,5.00
2018-01-15T16:22:59.884Z,5.10
2018-01-15T16:25:27.529Z,5.00
2018-01-15T16:27:54.947Z,5.10
2018-01-15T16:30:22.387Z,5.10
2018-01-15T16:32:49.837Z,5.00
2018-01-15T16:35:17.432Z,5.10
2018-01-15T16:37:44.856Z,5.10
2018-01-15T16:40:12.291Z,5.20
2018-01-15T16:42:39.732Z,5.20
2018-01-15T16:45:07.923Z,5.20
2018-01-15T16:47:35.360Z,5.20
2018-01-15T16:50:09.302Z,5.30
2018-01-15T16:52:36.727Z,5.30
2018-01-15T16:55:04.921Z,5.30
2018-01-15T16:57:32.353Z,5.20
2018-01-15T17:00:00.554Z,5.40
2018-01-15T17:02:27.992Z,5.30
2018-01-15T17:04:56.213Z,5.40
2018-01-15T17:07:23.657Z,5.40
2018-01-15T17:09:51.079Z,5.50
2018-01-15T17:12:19.267Z,5.40
2018-01-15T17:14:46.703Z,5.40
2018-01-15T17:17:14.899Z,5.50
2018-01-15T17:19:42.331Z,5.50
2018-01-15T17:22:10.536Z,5.50
2018-01-15T17:24:37.967Z,5.50
2018-01-15T17:27:06.167Z,5.60
2018-01-15T17:29:33.620Z,5.60
2018-01-15T17:32:01.179Z,5.60
2018-01-15T17:34:28.612Z,5.60
2018-01-15T17:36:56.817Z,5.60
2018-01-15T17:39:24.243Z,5.50
2018-01-15T17:41:52.449Z,5.60
2018-01-15T17:44:19.871Z,5.60
2018-01-15T17:46:47.309Z,5.60
2018-01-15T17:49:14.745Z,5.60
2018-01-15T17:51:42.190Z,5.60
2018-01-15T17:54:09.622Z,5.70
2018-01-15T17:56:37.061Z,5.70
2018-01-15T17:59:05.261Z,5.60
2018-01-15T18:01:32.699Z,5.60
2018-01-15T18:04:00.887Z,5.70
2018-01-15T18:06:28.331Z,5.70
2018-01-15T18:08:56.529Z,5.60
2018-01-15T18:11:23.960Z,5.60
2018-01-15T18:13:52.232Z,5.70
2018-01-15T18:16:20.504Z,5.70
2018-01-15T18:18:47.968Z,5.70
2018-01-15T18:21:16.166Z,5.70
2018-01-15T18:23:43.604Z,5.70
2018-01-15T18:26:11.804Z,5.70
2018-01-15T18:28:39.251Z,5.70
2018-01-15T18:31:06.676Z,5.70
2018-01-15T18:33:34.110Z,5.70
2018-01-15T18:36:01.542Z,5.70
2018-01-15T18:38:28.971Z,5.80
2018-01-15T18:40:57.173Z,5.70
2018-01-15T18:43:24.611Z,5.70
2018-01-15T18:45:52.034Z,5.70
2018-01-15T18:48:19.470Z,5.70
2018-01-15T18:50:46.902Z,5.70
2018-01-15T18:53:14.339Z,5.70
2018-01-15T18:55:41.786Z,5.70
2018-01-15T18:58:09.989Z,5.70
2018-01-15T19:00:37.511Z,5.70
2018-01-15T19:03:05.709Z,5.80
2018-01-15T19:05:33.235Z,5.80
2018-01-15T19:08:00.658Z,5.80
2018-01-15T19:10:28.101Z,5.80
2018-01-15T19:12:55.548Z,5.80
2018-01-15T19:15:22.961Z,5.90
2018-01-15T19:17:50.394Z,5.90
2018-01-15T19:20:17.833Z,6.00
2018-01-15T19:22:45.252Z,6.00
2018-01-15T19:25:13.456Z,6.00
2018-01-15T19:27:40.888Z,5.90
2018-01-15T19:30:08.479Z,5.90
2018-01-15T19:32:35.887Z,5.90
2018-01-15T19:35:06.848Z,5.90
2018-01-15T19:37:37.332Z,5.90
2018-01-15T19:40:04.854Z,5.90
2018-01-15T19:42:32.284Z,5.80
2018-01-15T19:45:06.343Z,5.80
2018-01-15T19:47:39.519Z,5.80
2018-01-15T19:50:12.637Z,5.80
2018-01-15T19:52:45.904Z,5.70
2018-01-15T19:55:19.124Z,5.70
2018-01-15T19:57:52.164Z,5.70
2018-01-15T20:00:26.430Z,5.70
2018-01-15T20:02:59.613Z,5.70
2018-01-15T20:05:32.793Z,5.70
2018-01-15T20:08:05.815Z,5.70
2018-01-15T20:10:39.011Z,5.70
2018-01-15T20:13:06.504Z,5.60
2018-01-15T20:15:33.938Z,5.60
2018-01-15T20:18:02.131Z,5.70
2018-01-15T20:20:29.555Z,5.70
2018-01-15T20:22:59.442Z,5.70
2018-01-15T20:25:27.679Z,5.70
2018-01-15T20:27:55.155Z,5.70
2018-01-15T20:30:22.572Z,5.80
2018-01-15T20:32:50.778Z,5.80
2018-01-15T20:35:18.203Z,5.70
2018-01-15T20:37:46.397Z,5.80
2018-01-15T20:40:13.833Z,5.80
2018-01-15T20:42:42.020Z,5.80
2018-01-15T20:45:09.456Z,5.80
2018-01-15T20:47:36.989Z,5.80
2018-01-15T20:50:04.406Z,5.80
2018-01-15T20:52:31.834Z,5.80
2018-01-15T20:55:00.029Z,5.80
2018-01-15T20:57:27.468Z,5.80
2018-01-15T20:59:55.655Z,5.90
2018-01-15T21:02:23.089Z,5.90
2018-01-15T21:04:50.547Z,5.90
2018-01-15T21:07:18.010Z,5.90
2018-01-15T21:09:46.210Z,6.00
2018-01-15T21:12:13.642Z,6.00
2018-01-15T21:14:41.073Z,6.00
2018-01-15T21:17:08.491Z,6.00
2018-01-15T21:19:36.933Z,5.90
2018-01-15T21:22:05.571Z,6.00
2018-01-15T21:24:32.981Z,6.00
2018-01-15T21:27:01.176Z,6.10
2018-01-15T21:29:28.660Z,6.10
2018-01-15T21:31:56.087Z,6.10
2018-01-15T21:34:23.602Z,6.10
2018-01-15T21:36:51.047Z,6.10
2018-01-15T21:39:18.484Z,6.10
2018-01-15T21:41:45.934Z,6.20
2018-01-15T21:44:13.401Z,6.20
2018-01-15T21:46:41.077Z,6.20
2018-01-15T21:49:08.488Z,6.20
2018-01-15T21:51:35.923Z,6.30
2018-01-15T21:54:03.344Z,6.30
2018-01-15T21:56:30.784Z,6.20
2018-01-15T21:58:59.049Z,6.20
2018-01-15T22:01:26.674Z,6.30
2018-01-15T22:03:54.196Z,6.30
2018-01-15T22:06:21.636Z,6.20
2018-01-15T22:08:49.103Z,6.30
2018-01-15T22:11:16.537Z,6.30
2018-01-15T22:13:45.414Z,6.30
2018-01-15T22:16:13.613Z,6.40
2018-01-15T22:18:41.024Z,6.40
2018-01-15T22:21:08.981Z,6.40
2018-01-15T22:23:36.413Z,6.40
2018-01-15T22:26:03.944Z,6.50
2018-01-15T22:28:31.358Z,6.50
2018-01-15T22:30:58.839Z,6.50
2018-01-15T22:33:27.040Z,6.60
2018-01-15T22:35:54.756Z,6.60
2018-01-15T22:38:22.315Z,6.60
2018-01-15T22:40:49.760Z,6.60
2018-01-15T22:43:17.192Z,6.60
2018-01-15T22:45:44.712Z,6.70
2018-01-15T22:48:12.918Z,6.80
2018-01-15T22:50:40.439Z,6.80
2018-01-15T22:53:08.644Z,6.80
2018-01-15T22:55:36.084Z,6.90
2018-01-15T22:58:03.519Z,6.90
2018-01-15T23:00:30.977Z,6.90
2018-01-15T23:02:58.448Z,6.90
2018-01-15T23:05:27.451Z,6.90
2018-01-15T23:07:54.875Z,6.90
2018-01-15T23:10:22.305Z,7.00
2018-01-15T23:12:49.787Z,7.00
2018-01-15T23:15:17.328Z,7.10
2018-01-15T23:17:44.815Z,7.10
2018-01-15T23:20:12.335Z,7.10
2018-01-15T23:22:39.778Z,7.20
2018-01-15T23:25:07.197Z,7.30
2018-01-15T23:27:35.448Z,7.30
2018-01-15T23:30:02.900Z,7.20
2018-01-15T23:32:30.610Z,7.30
2018-01-15T23:34:58.199Z,7.30
2018-01-15T23:37:26.916Z,7.30
2018-01-15T23:39:54.332Z,7.30
2018-01-15T23:42:21.767Z,7.30
2018-01-15T23:44:49.963Z,7.40
2018-01-15T23:47:17.385Z,7.40
2018-01-15T23:49:45.644Z,7.40
2018-01-15T23:52:14.996Z,7.50
2018-01-15T23:54:42.415Z,7.50
2018-01-15T23:57:12.371Z,7.50
2018-01-15T23:59:39.783Z,7.50
